KLIMATOLOGI DAS PAGUYAMAN HARAPAN

Tanggal Temperature (oC) RH (%) PAN 'A' Kecepatan Angin (KM/hari) Sinar Matahari (%) Hujan Biasa (mm)
Max Min Rata-rata Temp Air Dlm Tangki (oC) Penguapan (mm)
2021-12-31 34 23.4 28.7 92 30 7.3 38.4 46.59 0
2021-12-30 33.8 23.6 28.7 96 30 4.1 29.9 50.79 0
2021-12-29 34.8 23 28.9 94 31.5 4.6 37.6 69.11 0
2021-12-28 29.2 22.6 25.9 96 27 0.3 10 0 0
2021-12-27 32.6 24 28.3 89 30 2.7 29.7 23.31 1
2021-12-26 35 23.4 29.2 94 31 3.6 36.9 46.63 1.2
2021-12-25 33.6 23 28.3 96 30.5 2.3 24.5 37.47 0
2021-12-24 34.4 23 28.7 96 31 5.1 36.1 59.12 21
2021-12-23 33.8 23 28.4 96 30 4.1 36.4 54.12 20
2021-12-22 34.2 23.4 28.8 96 31 5.5 37.2 58.28 14.9
2021-12-21 34 22.8 28.4 96 30.5 2.6 31.9 34.97 1.7
2021-12-20 33.8 24.6 29.2 96 31 1.9 26.3 32.47 5.7
2021-12-19 34.4 24 29.2 96 33 8.9 33.6 34.97 34.6
2021-12-18 35 25.2 30.1 96 32.5 5.4 41.9 55.79 4.9
2021-12-17 34.6 25 29.8 94 31 3.6 41.2 61.62 0.01
2021-12-16 34.6 22.6 28.6 92 31 5.3 30.2 49.96 0
2021-12-15 33.4 24.8 29.1 91 30.5 2.3 37.8 58.63 0
2021-12-14 35 24.2 29.6 96 31 2.4 38.6 48.72 0
2021-12-13 36 24 30 96 31.5 1.8 34.2 58.63 0
2021-12-12 33.8 23.8 28.8 94 30.5 4.6 28.4 33.03 10
2021-12-11 36 23.8 29.9 92 32.5 4.9 35.8 0 7.1
2021-12-10 36.4 24.2 30.3 94 32.5 4.7 41.7 58.63 4.2
2021-12-09 34.2 23.6 28.9 91 29.5 3.4 27.5 50.37 0
2021-12-08 36 22.8 29.4 90 30.5 3.5 33.3 24.77 0
2021-12-07 37.8 23.8 30.8 96 31 5.2 31.7 87.53 0
2021-12-06 34.2 22.6 28.4 85.2 30 2.4 30 45.42 0
2021-12-05 33.8 23.6 28.7 96 30.5 2.6 20.9 17.34 0.01
2021-12-04 34.6 24 29.3 96 30.5 4.1 34.3 20.64 11.8
2021-12-03 35 24.4 29.7 96 31.5 3.2 29.1 58.63 2.5
2021-12-02 34.4 24.8 29.6 96 31 2.9 31.2 26.42 0
2021-12-01 34.4 24.2 29.3 92 30.5 3.9 29.6 48.72 0